Time;durP1;ratioP1;P1;durP2;ratioP2;P2;SDS_P1;SDS_P2;PMS_P1;PMS_P2;Temp;Humidity;BMP_temperature;BMP_pressure;BME280_temperature;BME280_humidity;BME280_pressure;Samples;Min_cycle;Max_cycle;Signal;HPM_P1;HPM_P2
2022/10/27 00:00:41;;;;;;;29.27;8.25;;;11.80;99.90;;;;;;5067019;28;20407;-72
2022/10/27 00:03:10;;;;;;;20.42;8.35;;;11.90;99.90;;;;;;5066582;28;20051;-72
2022/10/27 00:05:36;;;;;;;16.65;7.70;;;11.80;99.90;;;;;;5068610;28;20086;-72
2022/10/27 00:08:01;;;;;;;19.33;6.82;;;11.80;99.90;;;;;;5022331;28;20439;-72
2022/10/27 00:10:27;;;;;;;24.25;7.88;;;11.80;99.90;;;;;;5026052;28;20041;-72
2022/10/27 00:12:53;;;;;;;17.30;7.65;;;11.90;99.90;;;;;;5047761;28;20064;-72
2022/10/27 00:15:18;;;;;;;19.02;7.03;;;12.00;99.90;;;;;;5051236;28;20055;-73
2022/10/27 00:17:44;;;;;;;24.20;9.43;;;12.00;99.90;;;;;;5050712;28;20508;-73
2022/10/27 00:20:10;;;;;;;21.02;9.63;;;12.00;99.90;;;;;;5059906;28;20465;-73
2022/10/27 00:22:36;;;;;;;19.55;6.10;;;12.00;99.90;;;;;;5047852;28;20111;-72
2022/10/27 00:25:02;;;;;;;15.80;4.65;;;12.00;99.90;;;;;;5043781;28;20089;-72
2022/10/27 00:27:27;;;;;;;12.35;4.32;;;11.80;99.90;;;;;;5021491;28;20037;-73
2022/10/27 00:29:53;;;;;;;18.65;4.20;;;11.60;99.90;;;;;;5048663;28;20094;-72
2022/10/27 00:32:19;;;;;;;15.18;4.07;;;11.40;99.90;;;;;;5046285;28;20045;-73
2022/10/27 00:34:44;;;;;;;10.63;3.60;;;11.20;99.90;;;;;;5046718;28;20420;-72
2022/10/27 00:37:10;;;;;;;11.15;3.97;;;11.00;99.90;;;;;;5011679;28;20045;-72
2022/10/27 00:39:36;;;;;;;11.23;3.67;;;10.90;99.90;;;;;;5043788;28;20053;-72
2022/10/27 00:42:01;;;;;;;10.05;3.40;;;10.80;99.90;;;;;;5040989;28;20054;-72
2022/10/27 00:44:38;;;;;;;15.43;3.53;;;10.70;99.90;;;;;;5051561;28;20123;-72
2022/10/27 00:47:09;;;;;;;8.10;3.47;;;10.70;99.90;;;;;;5032708;28;20067;-73
2022/10/27 00:49:58;;;;;;;9.13;3.72;;;10.60;99.90;;;;;;5046465;28;20061;-72
2022/10/27 00:52:50;;;;;;;9.43;3.58;;;10.50;99.90;;;;;;5035081;28;20127;-72
2022/10/27 00:55:32;;;;;;;19.80;5.65;;;10.40;99.90;;;;;;5043310;28;20144;-72
2022/10/27 00:58:04;;;;;;;24.95;8.25;;;10.70;99.90;;;;;;5049835;28;20044;-72
2022/10/27 01:00:30;;;;;;;29.27;10.15;;;11.10;99.90;;;;;;5066695;28;20434;-72
2022/10/27 01:02:56;;;;;;;29.80;11.55;;;11.30;99.90;;;;;;5046836;28;20041;-72
2022/10/27 01:05:25;;;;;;;30.75;11.80;;;11.50;99.90;;;;;;5049683;28;20041;-72
2022/10/27 01:07:56;;;;;;;29.25;12.70;;;11.60;99.90;;;;;;5034339;28;20763;-72
2022/10/27 01:10:22;;;;;;;26.25;11.57;;;11.50;99.90;;;;;;5039722;28;20056;-72
2022/10/27 01:12:48;;;;;;;29.27;12.43;;;11.50;99.90;;;;;;5042072;28;20040;-72
2022/10/27 01:15:15;;;;;;;30.52;13.30;;;11.60;99.90;;;;;;5059554;28;20723;-72
2022/10/27 01:17:41;;;;;;;27.27;12.63;;;11.70;99.90;;;;;;5027475;28;20048;-72
2022/10/27 01:20:34;;;;;;;28.83;12.63;;;11.80;99.90;;;;;;5061359;28;20550;-72
2022/10/27 01:23:15;;;;;;;33.40;12.98;;;11.80;99.90;;;;;;5049678;28;20049;-72
2022/10/27 01:26:04;;;;;;;23.98;11.55;;;11.70;99.90;;;;;;5050575;28;20053;-72
2022/10/27 01:28:50;;;;;;;30.63;12.02;;;11.70;99.90;;;;;;5042005;28;20403;-72
2022/10/27 01:31:26;;;;;;;28.33;13.02;;;11.60;99.90;;;;;;5070159;28;20683;-72
2022/10/27 01:34:02;;;;;;;31.95;13.90;;;11.70;99.90;;;;;;5041294;28;20042;-72
2022/10/27 01:36:40;;;;;;;25.33;12.43;;;11.80;99.90;;;;;;5036026;28;20057;-72
2022/10/27 01:39:18;;;;;;;28.67;14.05;;;11.80;99.90;;;;;;5028412;28;20041;-72
2022/10/27 01:41:54;;;;;;;27.08;13.73;;;11.80;99.90;;;;;;5038389;28;20057;-73
2022/10/27 01:44:35;;;;;;;26.15;13.50;;;11.90;99.90;;;;;;5048834;28;20556;-72
2022/10/27 01:47:02;;;;;;;21.17;11.70;;;11.90;99.90;;;;;;5040716;28;20045;-73
2022/10/27 01:49:39;;;;;;;28.63;14.88;;;11.90;99.90;;;;;;5047883;28;20386;-73
2022/10/27 01:52:06;;;;;;;29.85;14.93;;;12.00;99.90;;;;;;5048510;28;20072;-72
2022/10/27 01:54:35;;;;;;;30.70;14.90;;;12.20;99.90;;;;;;5049599;28;20127;-72
2022/10/27 01:57:30;;;;;;;26.50;15.68;;;12.30;99.90;;;;;;5031140;28;20051;-73
2022/10/27 02:00:06;;;;;;;28.27;15.48;;;12.20;99.90;;;;;;5038445;28;20603;-72
2022/10/27 02:02:51;;;;;;;28.92;15.88;;;12.20;99.90;;;;;;5050147;28;20045;-72
2022/10/27 02:05:23;;;;;;;36.45;18.08;;;12.20;99.90;;;;;;5051151;28;20067;-72
2022/10/27 02:07:53;;;;;;;31.20;16.95;;;12.20;99.90;;;;;;5033354;28;20067;-72
2022/10/27 02:10:56;;;;;;;37.67;19.10;;;12.20;99.90;;;;;;5038859;28;20041;-72
2022/10/27 02:13:23;;;;;;;33.55;19.30;;;12.30;99.90;;;;;;5045521;28;20037;-72
2022/10/27 02:15:54;;;;;;;38.45;19.75;;;12.40;99.90;;;;;;5064418;28;20049;-72
2022/10/27 02:18:29;;;;;;;33.72;19.90;;;12.30;99.90;;;;;;5048195;28;20448;-73
2022/10/27 02:21:01;;;;;;;38.00;21.92;;;12.30;99.90;;;;;;5056382;28;20412;-72
2022/10/27 02:23:28;;;;;;;30.73;17.80;;;12.30;99.90;;;;;;5061786;28;20053;-72
2022/10/27 02:26:22;;;;;;;38.33;19.35;;;12.40;99.90;;;;;;5048934;28;20053;-72
2022/10/27 02:28:57;;;;;;;32.22;17.27;;;12.50;99.90;;;;;;5046677;28;20095;-72
2022/10/27 02:31:29;;;;;;;31.88;17.38;;;12.50;99.90;;;;;;5049208;28;20045;-73
2022/10/27 02:33:57;;;;;;;33.30;17.20;;;12.50;99.90;;;;;;5048611;28;20045;-73
2022/10/27 02:36:23;;;;;;;31.58;17.35;;;12.60;99.90;;;;;;5036854;28;20060;-73
2022/10/27 02:38:48;;;;;;;32.75;17.23;;;12.40;99.90;;;;;;5047266;28;20049;-72
2022/10/27 02:41:14;;;;;;;31.20;17.63;;;12.40;99.90;;;;;;5038925;28;20097;-72
2022/10/27 02:43:40;;;;;;;31.67;19.55;;;12.20;99.90;;;;;;5060422;28;20165;-72
2022/10/27 02:46:06;;;;;;;37.50;19.23;;;12.20;99.90;;;;;;5030097;28;20070;-73
2022/10/27 02:48:31;;;;;;;36.33;22.05;;;12.40;99.90;;;;;;5037109;28;20049;-73
2022/10/27 02:50:57;;;;;;;26.33;16.23;;;12.50;99.90;;;;;;5063300;28;20059;-72
2022/10/27 02:53:23;;;;;;;34.63;17.83;;;12.80;99.90;;;;;;5067433;28;20059;-73
2022/10/27 02:55:49;;;;;;;28.00;15.18;;;12.50;99.90;;;;;;5067527;28;20060;-72
2022/10/27 02:58:15;;;;;;;27.38;16.50;;;12.50;99.90;;;;;;5024069;28;20057;-72
2022/10/27 03:00:40;;;;;;;28.85;15.52;;;12.50;99.90;;;;;;5068415;28;20055;-73
2022/10/27 03:03:06;;;;;;;23.45;14.70;;;12.40;99.90;;;;;;5067637;28;20095;-73
2022/10/27 03:05:31;;;;;;;30.35;14.93;;;12.30;99.90;;;;;;5066881;28;20063;-73
2022/10/27 03:07:57;;;;;;;32.58;15.65;;;12.30;99.90;;;;;;5033779;28;20537;-73
2022/10/27 03:10:23;;;;;;;29.48;14.82;;;12.40;99.90;;;;;;5032772;28;20071;-73
2022/10/27 03:12:49;;;;;;;24.67;14.13;;;12.30;99.90;;;;;;5055988;28;20044;-73
2022/10/27 03:15:14;;;;;;;24.88;13.98;;;12.30;99.90;;;;;;5057218;28;20057;-73
2022/10/27 03:17:45;;;;;;;23.90;12.75;;;12.20;99.90;;;;;;5024724;28;20511;-73
2022/10/27 03:20:11;;;;;;;19.75;12.65;;;12.20;99.90;;;;;;5059677;28;20061;-73
2022/10/27 03:22:37;;;;;;;23.80;13.02;;;12.20;99.90;;;;;;5047170;28;20092;-73
2022/10/27 03:25:03;;;;;;;25.05;12.80;;;12.20;99.90;;;;;;5048025;28;20056;-73
2022/10/27 03:27:29;;;;;;;27.52;14.35;;;12.20;99.90;;;;;;5011678;28;20590;-73
2022/10/27 03:29:55;;;;;;;24.77;14.05;;;12.50;99.90;;;;;;5024950;28;20128;-73
2022/10/27 03:32:20;;;;;;;20.48;13.55;;;12.50;99.90;;;;;;5020976;28;20048;-73
2022/10/27 03:34:46;;;;;;;34.20;13.57;;;12.60;99.90;;;;;;5061115;28;20056;-73
2022/10/27 03:37:12;;;;;;;25.45;13.30;;;12.60;99.90;;;;;;5022535;28;20052;-73
2022/10/27 03:39:37;;;;;;;29.95;13.52;;;12.60;99.90;;;;;;5024449;28;20056;-73
2022/10/27 03:42:03;;;;;;;27.23;13.63;;;12.60;99.90;;;;;;5017950;28;20045;-74
2022/10/27 03:44:29;;;;;;;23.70;12.75;;;12.60;99.90;;;;;;5044687;28;20445;-73
2022/10/27 03:46:54;;;;;;;24.98;12.30;;;12.50;99.90;;;;;;5033107;28;20053;-73
2022/10/27 03:49:20;;;;;;;22.70;12.05;;;12.50;99.90;;;;;;5032923;28;20103;-73
2022/10/27 03:51:45;;;;;;;22.83;13.00;;;12.40;99.90;;;;;;5047389;28;20036;-73
2022/10/27 03:54:11;;;;;;;27.65;13.48;;;12.50;99.90;;;;;;5046691;28;20129;-73
2022/10/27 03:56:37;;;;;;;24.88;13.77;;;12.70;99.90;;;;;;5033826;28;20099;-73
2022/10/27 03:59:02;;;;;;;22.35;11.50;;;12.70;99.90;;;;;;5046602;28;20041;-73
2022/10/27 04:01:31;;;;;;;19.88;11.52;;;12.60;99.90;;;;;;5043974;28;20480;-73
2022/10/27 04:03:56;;;;;;;23.08;12.43;;;12.50;99.90;;;;;;5048701;28;20471;-73
2022/10/27 04:06:22;;;;;;;31.13;15.75;;;12.50;99.90;;;;;;5056698;28;20044;-73
2022/10/27 04:08:48;;;;;;;31.05;15.60;;;12.60;99.90;;;;;;5064299;28;20044;-73
2022/10/27 04:11:13;;;;;;;27.15;14.30;;;12.50;99.90;;;;;;5040069;28;20109;-73
2022/10/27 04:13:39;;;;;;;27.98;14.50;;;12.50;99.90;;;;;;5039129;28;20428;-73
2022/10/27 04:16:06;;;;;;;23.13;14.50;;;12.70;99.90;;;;;;5046930;28;20042;-74
2022/10/27 04:18:32;;;;;;;26.13;14.00;;;12.80;99.90;;;;;;5029503;28;20091;-73
2022/10/27 04:21:02;;;;;;;25.75;14.20;;;12.70;99.90;;;;;;5038139;28;20493;-73
2022/10/27 04:23:28;;;;;;;26.85;14.65;;;12.70;99.90;;;;;;5025742;28;20400;-73
2022/10/27 04:25:54;;;;;;;29.92;14.75;;;12.70;99.90;;;;;;5047955;28;20037;-72
2022/10/27 04:28:20;;;;;;;27.13;15.75;;;12.70;99.90;;;;;;5027773;28;20045;-73
2022/10/27 04:30:46;;;;;;;26.88;14.80;;;12.60;99.90;;;;;;5046794;28;20102;-72
2022/10/27 04:33:12;;;;;;;26.23;15.38;;;12.60;99.90;;;;;;5045702;28;20041;-73
2022/10/27 04:35:37;;;;;;;25.05;13.65;;;12.60;99.90;;;;;;5041339;28;20052;-73
2022/10/27 04:38:03;;;;;;;30.10;14.60;;;12.70;99.90;;;;;;5034238;28;20041;-73
2022/10/27 04:40:29;;;;;;;26.15;14.70;;;12.50;99.90;;;;;;5026291;28;20136;-72
2022/10/27 04:42:55;;;;;;;25.15;14.15;;;12.50;99.90;;;;;;5026326;28;20053;-73
2022/10/27 04:45:21;;;;;;;29.75;14.57;;;12.50;99.90;;;;;;5042618;28;20453;-73
2022/10/27 04:47:46;;;;;;;23.85;14.38;;;12.50;99.90;;;;;;5045322;28;20044;-73
2022/10/27 04:50:16;;;;;;;26.42;14.85;;;12.50;99.90;;;;;;5039706;28;20059;-73
2022/10/27 04:52:56;;;;;;;26.15;14.98;;;12.50;99.90;;;;;;5046875;28;20051;-73
2022/10/27 04:55:23;;;;;;;28.15;15.63;;;12.40;99.90;;;;;;5046608;28;20194;-73
2022/10/27 04:57:49;;;;;;;30.83;15.27;;;12.40;99.90;;;;;;5010710;28;20049;-73
2022/10/27 05:00:15;;;;;;;27.33;16.10;;;12.30;99.90;;;;;;5039787;28;20059;-73
2022/10/27 05:02:40;;;;;;;29.77;16.38;;;12.30;99.90;;;;;;5047195;28;20090;-73
2022/10/27 05:05:06;;;;;;;35.03;17.98;;;12.20;99.90;;;;;;5048212;28;20068;-72
2022/10/27 05:07:32;;;;;;;35.60;17.48;;;12.20;99.90;;;;;;5030250;28;20041;-73
2022/10/27 05:09:58;;;;;;;36.05;16.55;;;12.30;99.90;;;;;;5043154;28;20068;-73
2022/10/27 05:12:24;;;;;;;29.85;16.20;;;12.20;99.90;;;;;;5045280;28;20068;-73
2022/10/27 05:14:50;;;;;;;28.17;14.32;;;12.20;99.90;;;;;;5047826;28;20045;-73
2022/10/27 05:17:15;;;;;;;29.83;15.82;;;12.10;99.90;;;;;;5050651;28;20049;-73
2022/10/27 05:19:41;;;;;;;26.98;15.13;;;12.00;99.90;;;;;;5058858;28;20055;-73
2022/10/27 05:22:06;;;;;;;28.00;15.20;;;12.00;99.90;;;;;;5043695;28;20045;-74
2022/10/27 05:24:32;;;;;;;34.83;17.15;;;11.90;99.90;;;;;;5046675;28;20049;-73
2022/10/27 05:26:58;;;;;;;33.63;18.48;;;11.90;99.90;;;;;;5031277;28;20056;-72
2022/10/27 05:29:24;;;;;;;28.60;18.48;;;11.90;99.90;;;;;;5046853;28;20053;-73
2022/10/27 05:31:51;;;;;;;36.60;17.35;;;12.00;99.90;;;;;;5046253;28;20057;-72
2022/10/27 05:34:17;;;;;;;33.40;18.80;;;11.80;99.90;;;;;;5046603;28;20063;-73
2022/10/27 05:36:42;;;;;;;40.33;18.42;;;11.90;99.90;;;;;;5026082;28;20038;-73
2022/10/27 05:39:08;;;;;;;28.77;17.50;;;11.80;99.90;;;;;;5012591;28;20100;-73
2022/10/27 05:41:34;;;;;;;34.50;18.83;;;11.90;99.90;;;;;;5040874;28;20051;-73
2022/10/27 05:43:59;;;;;;;36.15;18.60;;;11.90;99.90;;;;;;5036229;28;20091;-73
2022/10/27 05:46:25;;;;;;;35.65;18.27;;;11.90;99.90;;;;;;5026985;28;20053;-73
2022/10/27 05:48:51;;;;;;;30.70;18.67;;;11.90;99.90;;;;;;5029882;28;20118;-73
2022/10/27 05:51:16;;;;;;;34.22;18.15;;;11.90;99.90;;;;;;5023623;28;20052;-73
2022/10/27 05:53:42;;;;;;;38.17;18.17;;;11.90;99.90;;;;;;5037611;28;20048;-72
2022/10/27 05:56:08;;;;;;;38.83;18.27;;;11.80;99.90;;;;;;5035442;28;20501;-74
2022/10/27 05:58:33;;;;;;;31.38;17.48;;;11.80;99.90;;;;;;5026953;28;20106;-73
2022/10/27 06:00:59;;;;;;;28.77;18.05;;;11.90;99.90;;;;;;5032668;28;20084;-73
2022/10/27 06:03:25;;;;;;;31.92;17.38;;;11.90;99.90;;;;;;5041699;28;20074;-73
2022/10/27 06:05:52;;;;;;;29.55;18.23;;;11.90;99.90;;;;;;5038550;28;20519;-73
2022/10/27 06:08:19;;;;;;;32.65;17.52;;;11.90;99.90;;;;;;5026287;28;20419;-73
2022/10/27 06:10:45;;;;;;;32.15;18.13;;;11.90;99.90;;;;;;5042634;28;20107;-73
2022/10/27 06:13:13;;;;;;;29.60;17.70;;;11.80;99.90;;;;;;5068700;28;20044;-73
2022/10/27 06:15:39;;;;;;;31.48;17.80;;;11.90;99.90;;;;;;5055984;28;20061;-73
2022/10/27 06:18:05;;;;;;;32.63;18.67;;;12.10;99.90;;;;;;5034702;28;20114;-73
2022/10/27 06:20:31;;;;;;;39.38;19.58;;;12.20;99.90;;;;;;5056338;28;20044;-73
2022/10/27 06:22:57;;;;;;;32.72;19.38;;;12.20;99.90;;;;;;5069890;28;20431;-73
2022/10/27 06:25:23;;;;;;;34.67;18.02;;;12.20;99.90;;;;;;5062656;28;20045;-73
2022/10/27 06:27:49;;;;;;;37.65;19.80;;;12.30;99.90;;;;;;5025723;28;20156;-72
2022/10/27 06:30:14;;;;;;;38.88;20.38;;;12.20;99.90;;;;;;5057349;28;20063;-72
2022/10/27 06:32:41;;;;;;;31.83;18.70;;;12.30;99.90;;;;;;5059331;28;20041;-73
2022/10/27 06:35:08;;;;;;;29.42;17.15;;;12.50;99.90;;;;;;5058714;28;20691;-73
2022/10/27 06:37:37;;;;;;;31.90;17.77;;;12.50;99.90;;;;;;5045497;28;20048;-73
2022/10/27 06:40:05;;;;;;;27.17;17.15;;;12.50;99.90;;;;;;5060662;28;20051;-72
2022/10/27 06:42:31;;;;;;;27.70;16.75;;;12.40;99.90;;;;;;5051343;28;20044;-74
2022/10/27 06:44:56;;;;;;;27.40;15.98;;;12.50;99.90;;;;;;5058728;28;20043;-73
2022/10/27 06:47:22;;;;;;;25.30;15.25;;;12.50;99.90;;;;;;5044769;28;20041;-73
2022/10/27 06:49:48;;;;;;;25.35;15.95;;;12.50;99.90;;;;;;5057395;28;20061;-73
2022/10/27 06:52:13;;;;;;;28.52;15.68;;;12.40;99.90;;;;;;5058668;28;20067;-73
2022/10/27 06:54:39;;;;;;;25.63;15.95;;;12.50;99.90;;;;;;5037601;28;20098;-73
2022/10/27 06:57:05;;;;;;;27.33;14.68;;;12.40;99.90;;;;;;5028863;28;20092;-73
2022/10/27 06:59:31;;;;;;;27.05;15.05;;;12.40;99.90;;;;;;5044800;28;20053;-73
2022/10/27 07:01:57;;;;;;;22.10;14.90;;;12.40;99.90;;;;;;5026682;28;20396;-73
2022/10/27 07:04:22;;;;;;;30.05;15.80;;;12.50;99.90;;;;;;5043341;28;20120;-73
2022/10/27 07:06:48;;;;;;;28.20;15.23;;;12.50;99.90;;;;;;5023941;28;20638;-73
2022/10/27 07:09:13;;;;;;;28.05;15.95;;;12.60;99.90;;;;;;5027343;28;20065;-73
2022/10/27 07:11:39;;;;;;;32.42;14.85;;;12.60;99.90;;;;;;5039852;28;20053;-73
2022/10/27 07:14:05;;;;;;;23.90;14.60;;;12.70;99.90;;;;;;5054497;28;20500;-73
2022/10/27 07:16:30;;;;;;;24.23;14.70;;;12.70;99.90;;;;;;5023536;28;20052;-74
2022/10/27 07:18:56;;;;;;;26.88;14.73;;;12.70;99.90;;;;;;5032103;28;20056;-73
2022/10/27 07:21:22;;;;;;;31.55;15.25;;;12.70;99.90;;;;;;5016667;28;20124;-73
2022/10/27 07:23:47;;;;;;;33.33;15.48;;;12.60;99.90;;;;;;5010704;28;20045;-72
2022/10/27 07:26:13;;;;;;;44.45;16.35;;;12.70;99.90;;;;;;5024391;28;20461;-74
2022/10/27 07:28:39;;;;;;;32.83;15.35;;;12.80;99.90;;;;;;5035849;28;20658;-73
2022/10/27 07:31:05;;;;;;;31.40;15.15;;;12.70;99.90;;;;;;5044626;28;20110;-73
2022/10/27 07:33:30;;;;;;;24.25;14.82;;;12.80;99.90;;;;;;5044073;28;20049;-73
2022/10/27 07:35:56;;;;;;;19.90;14.20;;;12.90;99.90;;;;;;5044909;28;20604;-73
2022/10/27 07:38:21;;;;;;;19.38;13.30;;;12.80;99.90;;;;;;5028662;28;20044;-73
2022/10/27 07:40:47;;;;;;;23.42;13.32;;;12.90;99.90;;;;;;5026489;28;20045;-73
2022/10/27 07:43:13;;;;;;;17.52;12.95;;;12.90;99.90;;;;;;5023385;28;20045;-73
2022/10/27 07:45:42;;;;;;;18.50;12.18;;;13.00;99.90;;;;;;5044634;28;20045;-73
2022/10/27 07:48:13;;;;;;;19.25;12.30;;;13.20;99.90;;;;;;5016586;28;20048;-73
2022/10/27 07:50:39;;;;;;;20.75;12.02;;;13.00;99.90;;;;;;5044044;28;20049;-73
2022/10/27 07:53:05;;;;;;;20.02;11.90;;;13.10;99.90;;;;;;5042810;28;20087;-73
2022/10/27 07:55:34;;;;;;;18.63;10.90;;;13.10;99.90;;;;;;5042201;28;20120;-73
2022/10/27 07:58:11;;;;;;;18.45;11.77;;;13.30;99.90;;;;;;5020483;28;20404;-73
2022/10/27 08:00:39;;;;;;;19.30;11.27;;;13.40;99.90;;;;;;5041850;28;20519;-73
2022/10/27 08:03:09;;;;;;;14.32;11.05;;;13.50;99.90;;;;;;5034451;28;20595;-74
2022/10/27 08:05:36;;;;;;;15.85;10.82;;;13.50;99.90;;;;;;5042569;28;20106;-73
2022/10/27 08:08:04;;;;;;;17.92;10.40;;;13.60;99.90;;;;;;5027370;28;20045;-73
2022/10/27 08:10:32;;;;;;;16.67;11.13;;;13.70;99.90;;;;;;5040906;28;20048;-73
2022/10/27 08:12:57;;;;;;;16.95;10.13;;;13.70;99.90;;;;;;5022793;28;20116;-73
2022/10/27 08:15:23;;;;;;;15.48;9.25;;;13.80;99.90;;;;;;5027760;28;20045;-73
2022/10/27 08:17:54;;;;;;;14.57;9.57;;;13.90;99.90;;;;;;5023013;28;20042;-73
2022/10/27 08:20:21;;;;;;;16.13;9.65;;;14.00;99.90;;;;;;5028352;28;20056;-72
2022/10/27 08:23:20;;;;;;;16.15;9.30;;;14.10;99.90;;;;;;5026293;28;20045;-74
2022/10/27 08:25:49;;;;;;;13.43;9.25;;;14.20;99.90;;;;;;5034700;28;20049;-73
2022/10/27 08:28:15;;;;;;;18.63;9.07;;;14.30;99.90;;;;;;5030504;28;20064;-73
2022/10/27 08:30:41;;;;;;;17.27;9.43;;;14.30;99.90;;;;;;5023460;28;20547;-73
2022/10/27 08:33:07;;;;;;;14.32;9.20;;;14.30;99.90;;;;;;5065894;28;20458;-73
2022/10/27 08:35:33;;;;;;;19.20;8.65;;;14.40;99.90;;;;;;5050723;28;20422;-73
2022/10/27 08:38:02;;;;;;;18.48;8.95;;;14.30;99.90;;;;;;5034523;28;20503;-73
2022/10/27 08:40:42;;;;;;;12.45;8.27;;;14.50;99.90;;;;;;5066922;28;20071;-73
2022/10/27 08:43:19;;;;;;;14.32;8.30;;;14.50;99.90;;;;;;5046373;28;20100;-73
2022/10/27 08:45:57;;;;;;;13.30;8.07;;;14.50;99.90;;;;;;5046953;28;20516;-73
2022/10/27 08:48:26;;;;;;;13.05;8.13;;;14.60;99.90;;;;;;5035927;28;20048;-73
2022/10/27 08:50:52;;;;;;;13.73;7.97;;;14.60;99.90;;;;;;5063793;28;20059;-73
2022/10/27 08:53:38;;;;;;;13.68;7.50;;;14.70;99.90;;;;;;5065853;28;20040;-73
2022/10/27 08:56:11;;;;;;;13.20;7.80;;;14.80;99.90;;;;;;5059310;28;20523;-73
2022/10/27 08:58:45;;;;;;;15.70;7.70;;;15.00;99.90;;;;;;5048010;28;20048;-73
2022/10/27 09:01:48;;;;;;;13.48;8.07;;;15.00;99.90;;;;;;5057583;28;20053;-73
2022/10/27 09:04:46;;;;;;;12.00;7.30;;;15.20;99.90;;;;;;5053886;28;20067;-73
2022/10/27 09:07:23;;;;;;;16.50;6.70;;;15.40;99.90;;;;;;5033609;28;20144;-74
2022/10/27 09:09:54;;;;;;;13.13;6.22;;;15.50;99.90;;;;;;5038369;28;20057;-72
2022/10/27 09:12:28;;;;;;;11.43;6.35;;;15.70;99.90;;;;;;5045368;28;20060;-74
2022/10/27 09:15:09;;;;;;;12.60;5.80;;;15.80;99.90;;;;;;5047307;28;20557;-73
2022/10/27 09:17:40;;;;;;;31.57;15.70;;;15.80;99.90;;;;;;5051634;28;20398;-72
2022/10/27 09:20:28;;;;;;;22.80;13.88;;;15.90;99.90;;;;;;5059993;28;20056;-73
2022/10/27 09:22:56;;;;;;;13.70;6.53;;;16.10;99.90;;;;;;5046624;28;20045;-74
2022/10/27 09:25:22;;;;;;;10.75;5.18;;;16.10;99.90;;;;;;5049478;28;20048;-73
2022/10/27 09:27:54;;;;;;;9.30;5.93;;;16.10;99.90;;;;;;5034224;28;20045;-73
2022/10/27 09:30:20;;;;;;;9.00;5.45;;;16.20;99.90;;;;;;5050386;28;20061;-73
2022/10/27 09:32:50;;;;;;;10.57;5.45;;;16.10;99.90;;;;;;5062477;28;20056;-72
2022/10/27 09:35:21;;;;;;;21.00;11.70;;;16.10;99.90;;;;;;5071658;28;20048;-73
2022/10/27 09:37:47;;;;;;;11.00;5.28;;;16.10;99.90;;;;;;5054679;28;20060;-73
2022/10/27 09:40:18;;;;;;;9.32;4.88;;;16.30;99.90;;;;;;5070131;28;20044;-73
2022/10/27 09:42:45;;;;;;;13.05;5.78;;;16.30;99.90;;;;;;5052815;28;20044;-73
2022/10/27 09:45:20;;;;;;;9.95;4.68;;;16.40;99.90;;;;;;5029852;28;20046;-74
2022/10/27 09:47:51;;;;;;;14.57;4.97;;;16.40;99.90;;;;;;5044864;28;20044;-73
2022/10/27 09:50:22;;;;;;;10.80;4.97;;;16.50;99.90;;;;;;5070993;28;20047;-72
2022/10/27 09:52:47;;;;;;;15.38;4.97;;;16.50;99.90;;;;;;5068921;28;20044;-73
2022/10/27 09:55:15;;;;;;;11.18;4.25;;;16.60;99.90;;;;;;5069756;28;20174;-73
2022/10/27 09:57:42;;;;;;;12.95;4.55;;;16.60;99.90;;;;;;5053246;28;20051;-73
2022/10/27 10:00:25;;;;;;;8.95;4.38;;;16.60;99.90;;;;;;5053325;28;20047;-72
2022/10/27 10:02:59;;;;;;;9.07;3.97;;;16.60;99.90;;;;;;5050592;28;20119;-73
2022/10/27 10:05:28;;;;;;;9.25;4.53;;;16.60;99.90;;;;;;5036380;28;20045;-73
2022/10/27 10:08:26;;;;;;;9.10;3.90;;;16.60;99.90;;;;;;5039806;28;20119;-73
2022/10/27 10:11:04;;;;;;;11.88;4.60;;;16.70;99.90;;;;;;5053300;28;20442;-73
2022/10/27 10:13:36;;;;;;;9.65;4.45;;;16.60;99.90;;;;;;5054164;28;20400;-72
2022/10/27 10:16:05;;;;;;;10.32;4.30;;;16.60;99.90;;;;;;5054420;28;20123;-72
2022/10/27 10:18:32;;;;;;;9.65;4.32;;;16.70;99.90;;;;;;5034697;28;20045;-73
2022/10/27 10:21:04;;;;;;;12.45;4.22;;;16.80;99.90;;;;;;5051603;28;20052;-73
2022/10/27 10:23:47;;;;;;;11.18;3.80;;;16.80;99.90;;;;;;5057206;28;20063;-73
2022/10/27 10:26:22;;;;;;;10.40;3.45;;;16.90;99.90;;;;;;5051604;28;20105;-74
2022/10/27 10:28:53;;;;;;;8.55;3.85;;;16.90;99.90;;;;;;5054004;28;20053;-73
2022/10/27 10:31:27;;;;;;;6.53;3.67;;;17.00;99.90;;;;;;5059664;28;20045;-73
2022/10/27 10:34:07;;;;;;;6.15;3.55;;;17.00;99.90;;;;;;5068281;28;20124;-72
2022/10/27 10:36:35;;;;;;;6.43;3.20;;;17.10;99.90;;;;;;5056021;28;20411;-73
2022/10/27 10:39:03;;;;;;;6.65;3.25;;;17.10;99.90;;;;;;5064796;28;20052;-72
2022/10/27 10:41:29;;;;;;;7.97;3.03;;;17.20;99.90;;;;;;5047885;28;20052;-73
2022/10/27 10:44:14;;;;;;;5.57;3.10;;;17.30;99.90;;;;;;5031726;28;20088;-74
2022/10/27 10:46:53;;;;;;;6.55;2.92;;;17.30;99.90;;;;;;5031783;28;20053;-73
2022/10/27 10:49:25;;;;;;;7.53;2.58;;;17.40;99.90;;;;;;5056463;28;20048;-72
2022/10/27 10:51:56;;;;;;;10.35;2.72;;;17.50;99.90;;;;;;5068543;28;20052;-73
2022/10/27 10:54:34;;;;;;;9.50;2.55;;;17.60;99.90;;;;;;5064896;28;20079;-73
2022/10/27 10:57:01;;;;;;;6.28;2.45;;;17.60;99.90;;;;;;5022097;28;20110;-73
2022/10/27 10:59:29;;;;;;;4.40;2.10;;;17.60;99.90;;;;;;5045336;28;20041;-73
2022/10/27 11:02:01;;;;;;;8.60;2.25;;;17.80;99.90;;;;;;5045141;28;20049;-74
2022/10/27 11:04:32;;;;;;;4.80;2.22;;;18.00;99.90;;;;;;5048633;28;20041;-73
2022/10/27 11:07:04;;;;;;;5.75;2.45;;;18.20;99.90;;;;;;5034657;28;20444;-73
2022/10/27 11:09:55;;;;;;;8.90;2.60;;;18.40;99.90;;;;;;5043184;28;20148;-73
2022/10/27 11:12:38;;;;;;;7.17;2.60;;;18.40;99.90;;;;;;5047368;28;20148;-73
2022/10/27 11:15:26;;;;;;;7.15;2.00;;;18.30;99.90;;;;;;5050444;28;20385;-73
2022/10/27 11:18:13;;;;;;;9.32;2.40;;;18.20;99.90;;;;;;5053015;28;20048;-73
2022/10/27 11:20:41;;;;;;;8.63;2.10;;;18.30;99.90;;;;;;5056797;28;20052;-73
2022/10/27 11:23:21;;;;;;;8.00;2.28;;;18.50;99.90;;;;;;5044754;28;20539;-73
2022/10/27 11:25:47;;;;;;;7.45;2.10;;;18.50;99.90;;;;;;5047828;28;20056;-72
2022/10/27 11:28:21;;;;;;;7.22;1.80;;;18.50;99.90;;;;;;5032524;28;20094;-73
2022/10/27 11:31:16;;;;;;;6.22;2.03;;;18.50;99.90;;;;;;5057537;28;20074;-73
2022/10/27 11:34:19;;;;;;;7.63;2.00;;;18.40;99.90;;;;;;5055165;28;20064;-73
2022/10/27 11:36:57;;;;;;;7.00;2.10;;;18.40;99.90;;;;;;5041076;28;20057;-74
2022/10/27 11:39:45;;;;;;;6.38;1.60;;;18.40;99.90;;;;;;5048419;28;20052;-73
2022/10/27 11:42:37;;;;;;;3.80;1.63;;;18.40;99.90;;;;;;5051451;28;20589;-73
2022/10/27 11:45:25;;;;;;;6.10;1.58;;;18.50;99.90;;;;;;5048794;28;20037;-73
2022/10/27 11:48:05;;;;;;;3.17;1.33;;;18.50;99.90;;;;;;5027994;28;20065;-72
2022/10/27 11:50:42;;;;;;;3.30;1.50;;;18.80;99.90;;;;;;5047388;28;20135;-73
2022/10/27 11:53:09;;;;;;;7.53;1.45;;;19.10;99.90;;;;;;5047172;28;20099;-73
2022/10/27 11:56:16;;;;;;;4.78;1.52;;;19.30;99.90;;;;;;5049856;28;20404;-73
2022/10/27 11:59:07;;;;;;;4.68;1.63;;;19.60;99.90;;;;;;5027345;28;20099;-73
2022/10/27 12:01:35;;;;;;;8.13;1.50;;;19.80;99.90;;;;;;5051537;28;20080;-73
2022/10/27 12:04:31;;;;;;;6.22;1.20;;;19.90;99.90;;;;;;5043487;28;20550;-74
2022/10/27 12:07:30;;;;;;;6.38;1.30;;;20.30;99.90;;;;;;5047927;28;20041;-72
2022/10/27 12:10:18;;;;;;;5.40;1.35;;;20.20;99.90;;;;;;5057551;28;20132;-73
2022/10/27 12:13:04;;;;;;;4.70;1.35;;;20.60;99.90;;;;;;5046347;28;20053;-73
2022/10/27 12:16:05;;;;;;;3.70;1.05;;;21.00;99.90;;;;;;5053046;28;20048;-73
2022/10/27 12:18:43;;;;;;;2.45;0.90;;;21.30;99.90;;;;;;5023806;28;20064;-73
2022/10/27 12:21:21;;;;;;;3.92;0.80;;;21.20;99.90;;;;;;5058806;28;20066;-73
2022/10/27 12:24:12;;;;;;;4.35;0.80;;;20.90;99.90;;;;;;5066021;28;20075;-73
2022/10/27 12:26:49;;;;;;;3.97;0.90;;;20.80;99.90;;;;;;5053481;28;20044;-73
2022/10/27 12:29:16;;;;;;;6.72;1.10;;;20.80;99.90;;;;;;5066035;28;20530;-73
2022/10/27 12:31:49;;;;;;;2.10;0.57;;;20.40;99.90;;;;;;5066923;28;20052;-73
2022/10/27 12:34:17;;;;;;;4.03;1.10;;;20.10;99.90;;;;;;5067402;28;20044;-73
2022/10/27 12:36:59;;;;;;;4.38;0.90;;;19.90;99.90;;;;;;5032779;28;20049;-73
2022/10/27 12:39:42;;;;;;;7.32;1.20;;;19.70;99.90;;;;;;5046481;28;20056;-73
2022/10/27 12:42:19;;;;;;;4.38;1.20;;;19.70;99.90;;;;;;5048186;28;20116;-73
2022/10/27 12:44:54;;;;;;;4.88;1.05;;;19.50;99.90;;;;;;5037141;28;20550;-72
2022/10/27 12:47:46;;;;;;;3.63;1.10;;;19.40;99.90;;;;;;5052378;28;20048;-73
2022/10/27 12:50:24;;;;;;;5.53;0.90;;;19.40;99.90;;;;;;5067715;28;20514;-73
2022/10/27 12:52:52;;;;;;;4.47;1.10;;;19.40;99.90;;;;;;5061270;28;20051;-73